Angle Inlet, Minnesota
Current Conditions -  °F | °C
As of 10:14 PM on Wednesday 28 Jan 2015 (Local Time) from KFGN Reporting Station
Overcast Overcast  
Wind Chill: 16°   Ceiling: 1400
Heat Index: 28°   Visibility: 10mi
Dew Point: 27°   Wind: 17mph
Humidity: 93%   Direction: 340°NNW
Pressure: 29.91"   Gusts: 26mph
Location:  49.35°N, 95.08°W
Report Text: KFGN 290414Z AUTO 34015G23KT 10SM OVC014 M02/M03 A2991 RMK AO2
Loading
Personal Weather Stations






























Interactive Weather Map New forecast layout! Learn more

10-Day Weather Forecast

Advertisements
Track Severe Weather on mobile